Aérodrome :
LOGIN :

S'inscrire | Disclaimer

   EN    FR    IT 

 










Légende :    VFR   VFR Marginal   IFR   IFR Intensif   IFR Très Intensif
Visi : 
Plafond : 
>= 8 km
>= 3000ft
5 à 8 km
1000 à 3000 ft
1500m à 5 km
500 à 1000 ft
800 à 1500m
200 à 500 ft
< 800m
< 200 ft
Symboles :   Orages  Brouillard  Fortes neiges  Fortes précipitations  Vent > 20 kt
SIGMETs :   Divers  Orages  Givrage  Turbulence  Onde Orograph.  Cendres Volcan.







- Altitude de l'aérodrome : 26 ft
- Code IATA : BIA
- Voir les cartes d'approche


LFKB - Bastia

DERNIER METAR :
  • 181730Z AUTO 23004KT CAVOK 19/17 Q1013 NOSIG

METARs EXPIRÉS :
  • 181700Z AUTO 26003KT 9999 FEW022 20/18 Q1012 NOSIG
  • 181630Z AUTO 00000KT 9999 BKN021 21/18 Q1012 NOSIG
  • 181600Z AUTO 11003KT 9999 FEW022 22/18 Q1012 NOSIG
  • 181530Z AUTO VRB03KT 9999 FEW021 22/17 Q1012 NOSIG
  • 181500Z AUTO 07003KT 020V120 CAVOK 22/17 Q1012 NOSIG

TAF TAF LFKB
Valide du 18 à 15h jusqu'au 19 à 15h UTC


181400Z 1815/1915 33005KT 9999 FEW020 SCT060 TX24/1912Z TN14/1904Z
BECMG 1816/1818 CAVOK
BECMG 1907/1909 03010KT
ATIS : +33 4 95 59 19 40
Pas de NOTAMs connus pour ce terrain.



MET'MAP, la Météo Aéronautique d'un coup d'oeil ! - Copyright ORBIFLY Décembre 2007 - Disclaimer

ORBIFLY MET'MAP TEAM :

Programmation & Développement : Alexandra Zaïnal
Conception & Développement : Baudouin d'Aumeries
Co-Programmation & Développement : Marc-Olivier Méhu
Soutien technique & logistique : Manuel Goepfert

Contact : metmap@orbifly.com




SOURCES & CREDITS :

   NOAA